createdAt,value
2018-04-11T00:00:24.342Z,9.27
2018-04-11T00:02:51.813Z,11.30
2018-04-11T00:05:20.048Z,12.60
2018-04-11T00:07:47.544Z,18.50
2018-04-11T00:10:15.780Z,15.33
2018-04-11T00:12:43.272Z,19.40
2018-04-11T00:15:10.756Z,20.10
2018-04-11T00:17:38.240Z,24.33
2018-04-11T00:20:05.738Z,23.47
2018-04-11T00:22:33.212Z,23.00
2018-04-11T00:25:01.474Z,21.93
2018-04-11T00:27:28.946Z,22.90
2018-04-11T00:29:57.179Z,20.50
2018-04-11T00:32:24.668Z,22.73
2018-04-11T00:34:52.132Z,21.67
2018-04-11T00:37:20.381Z,23.33
2018-04-11T00:39:47.849Z,24.70
2018-04-11T00:42:15.320Z,25.23
2018-04-11T00:44:42.800Z,22.50
2018-04-11T00:47:10.287Z,22.40
2018-04-11T00:49:38.703Z,21.33
2018-04-11T00:52:06.172Z,22.30
2018-04-11T00:54:33.639Z,21.00
2018-04-11T00:57:01.897Z,20.60
2018-04-11T00:59:29.364Z,17.87
2018-04-11T01:01:56.848Z,16.60
2018-04-11T01:04:24.331Z,16.70
2018-04-11T01:06:51.803Z,13.90
2018-04-11T01:09:19.291Z,14.73
2018-04-11T01:11:46.764Z,13.90
2018-04-11T01:14:15.031Z,13.03
2018-04-11T01:16:42.496Z,10.30
2018-04-11T01:19:10.721Z,8.67
2018-04-11T01:21:38.203Z,9.73
2018-04-11T01:24:05.669Z,7.73
2018-04-11T01:26:33.448Z,7.77
2018-04-11T01:29:00.911Z,8.60
2018-04-11T01:31:29.140Z,7.20
2018-04-11T01:33:56.616Z,8.03
2018-04-11T01:36:24.083Z,8.37
2018-04-11T01:38:51.567Z,6.90
2018-04-11T01:41:19.809Z,7.03
2018-04-11T01:43:47.276Z,6.83
2018-04-11T01:46:14.760Z,5.70
2018-04-11T01:48:42.992Z,5.17
2018-04-11T01:51:10.475Z,4.80
2018-04-11T01:53:37.948Z,5.07
2018-04-11T01:56:06.182Z,5.00
2018-04-11T01:58:33.674Z,4.40
2018-04-11T02:01:01.136Z,4.30
2018-04-11T02:03:29.388Z,4.17
2018-04-11T02:05:56.861Z,4.10
2018-04-11T02:08:24.324Z,5.40
2018-04-11T02:10:51.810Z,5.00
2018-04-11T02:13:19.283Z,5.23
2018-04-11T02:15:46.767Z,4.97
2018-04-11T02:18:14.229Z,5.37
2018-04-11T02:20:41.691Z,5.50
2018-04-11T02:23:09.176Z,5.30
2018-04-11T02:25:37.399Z,5.07
2018-04-11T02:28:04.887Z,5.67
2018-04-11T02:30:32.360Z,5.10
2018-04-11T02:32:59.820Z,5.73
2018-04-11T02:35:27.301Z,5.10
2018-04-11T02:37:55.548Z,5.20
2018-04-11T02:40:23.032Z,5.50
2018-04-11T02:42:51.264Z,4.87
2018-04-11T02:45:18.753Z,5.20
2018-04-11T02:47:46.999Z,5.87
2018-04-11T02:50:14.455Z,5.35
2018-04-11T02:52:41.936Z,5.47
2018-04-11T02:55:09.403Z,5.43
2018-04-11T02:57:37.661Z,5.63
2018-04-11T03:00:05.128Z,6.20
2018-04-11T03:02:32.616Z,6.40
2018-04-11T03:05:00.095Z,5.70
2018-04-11T03:07:27.581Z,6.30
2018-04-11T03:09:55.060Z,6.00
2018-04-11T03:12:22.516Z,5.43
2018-04-11T03:14:50.771Z,5.20
2018-04-11T03:17:18.236Z,5.30
2018-04-11T03:19:45.726Z,6.20
2018-04-11T03:22:13.981Z,5.93
2018-04-11T03:24:41.444Z,6.10
2018-04-11T03:27:09.118Z,6.70
2018-04-11T03:29:36.633Z,6.70
2018-04-11T03:32:04.103Z,5.57
2018-04-11T03:34:31.566Z,5.83
2018-04-11T03:36:59.059Z,9.00
2018-04-11T03:39:27.295Z,6.50
2018-04-11T03:41:54.780Z,6.03
2018-04-11T03:44:23.016Z,5.50
2018-04-11T03:46:50.479Z,6.80
2018-04-11T03:49:17.972Z,6.40
2018-04-11T03:51:46.313Z,6.00
2018-04-11T03:54:13.828Z,6.03
2018-04-11T03:56:42.052Z,6.20
2018-04-11T03:59:09.537Z,6.47
2018-04-11T22:11:51.702Z,12.30
2018-04-11T22:14:19.184Z,17.80
2018-04-11T22:16:46.693Z,11.73
2018-04-11T22:19:15.581Z,12.70
2018-04-11T22:21:43.861Z,12.17
2018-04-11T22:24:12.115Z,12.43
2018-04-11T22:26:39.596Z,11.63
2018-04-11T22:29:07.841Z,10.93
2018-04-11T22:31:35.308Z,11.73
2018-04-11T22:34:02.784Z,11.70
2018-04-11T22:36:30.251Z,12.77
2018-04-11T22:38:58.500Z,11.23
2018-04-11T22:41:25.981Z,11.63
2018-04-11T22:43:54.231Z,11.97
2018-04-11T22:46:21.723Z,12.10
2018-04-11T22:48:49.995Z,12.50
2018-04-11T22:51:18.247Z,12.90
2018-04-11T22:53:45.730Z,12.57
2018-04-11T22:56:13.979Z,15.23
2018-04-11T22:58:41.459Z,13.40
2018-04-11T23:01:08.945Z,13.50
2018-04-11T23:03:36.461Z,12.47
2018-04-11T23:06:03.977Z,14.37
2018-04-11T23:08:31.464Z,13.17
2018-04-11T23:10:58.936Z,14.37
2018-04-11T23:13:26.426Z,14.13
2018-04-11T23:15:55.034Z,13.30
2018-04-11T23:18:22.508Z,12.03
2018-04-11T23:20:50.154Z,10.83
2018-04-11T23:23:17.620Z,10.40
2018-04-11T23:25:45.108Z,10.57
2018-04-11T23:28:12.578Z,10.10
2018-04-11T23:30:40.090Z,11.50
2018-04-11T23:33:07.648Z,11.50
2018-04-11T23:35:35.136Z,10.47
2018-04-11T23:38:02.607Z,10.80
2018-04-11T23:40:30.097Z,11.65
2018-04-11T23:42:58.336Z,11.23
2018-04-11T23:45:25.829Z,11.00
2018-04-11T23:47:54.088Z,10.20
2018-04-11T23:50:21.577Z,11.07
2018-04-11T23:52:49.808Z,10.23
2018-04-11T23:55:17.300Z,11.00
2018-04-11T23:57:45.535Z,10.93
